Time;durP1;ratioP1;P1;durP2;ratioP2;P2;SDS_P1;SDS_P2;PMS_P1;PMS_P2;Temp;Humidity;BMP_temperature;BMP_pressure;BME280_temperature;BME280_humidity;BME280_pressure;Samples;Min_cycle;Max_cycle;Signal;HPM_P1;HPM_P2
2022/03/05 00:01:04;;;;;;;40.78;19.00;;;;;;;6.95;45.64;98874.13;4493108;31;20089;-80
2022/03/05 00:03:29;;;;;;;41.50;19.35;;;;;;;6.79;45.99;98869.47;4492869;31;20101;-80
2022/03/05 00:05:55;;;;;;;44.03;19.55;;;;;;;6.94;45.90;98867.22;4477212;32;20104;-80
2022/03/05 00:08:20;;;;;;;40.33;18.58;;;;;;;6.80;45.80;98865.09;4499987;31;20138;-80
2022/03/05 00:10:46;;;;;;;40.53;19.27;;;;;;;6.86;45.70;98863.09;4488182;31;20096;-81
2022/03/05 00:13:12;;;;;;;38.38;18.30;;;;;;;6.89;45.33;98868.25;4487739;32;20115;-78
2022/03/05 00:15:37;;;;;;;38.15;17.40;;;;;;;6.85;44.90;98864.00;4488050;31;20111;-79
2022/03/05 00:18:03;;;;;;;40.15;17.87;;;;;;;6.83;45.18;98863.22;4486623;32;20092;-82
2022/03/05 00:20:28;;;;;;;42.15;18.73;;;;;;;6.84;45.27;98862.31;4486243;32;20444;-82
2022/03/05 00:22:54;;;;;;;43.28;20.23;;;;;;;6.83;45.35;98857.13;4487965;31;20119;-82
2022/03/05 00:25:21;;;;;;;41.83;18.48;;;;;;;6.82;45.36;98855.44;4487703;31;20384;-82
2022/03/05 00:27:47;;;;;;;39.28;18.45;;;;;;;6.86;45.36;98860.50;4487952;31;20113;-82
2022/03/05 00:30:12;;;;;;;41.55;18.85;;;;;;;6.87;45.11;98854.31;4486667;32;20088;-81
2022/03/05 00:32:38;;;;;;;40.45;18.33;;;;;;;6.88;45.01;98856.03;4487620;31;20104;-81
2022/03/05 00:35:05;;;;;;;40.97;17.87;;;;;;;6.84;45.06;98849.22;4487643;31;20389;-81
2022/03/05 00:37:31;;;;;;;37.50;17.40;;;;;;;6.86;45.22;98855.25;4487614;31;20101;-81
2022/03/05 00:39:56;;;;;;;38.40;18.17;;;;;;;6.81;45.44;98854.56;4487820;31;20561;-81
2022/03/05 00:42:22;;;;;;;35.17;16.95;;;;;;;6.89;45.18;98847.28;4487616;31;20096;-82
2022/03/05 00:44:47;;;;;;;37.00;16.75;;;;;;;6.86;44.96;98849.16;4487682;31;20115;-82
2022/03/05 00:47:13;;;;;;;36.15;16.10;;;;;;;6.70;45.37;98848.88;4487499;31;20085;-82
2022/03/05 00:49:38;;;;;;;37.00;16.00;;;;;;;6.63;45.48;98843.03;4487529;31;20091;-81
2022/03/05 00:52:04;;;;;;;31.08;14.77;;;;;;;6.75;45.25;98839.09;4487475;31;20480;-81
2022/03/05 00:54:29;;;;;;;32.33;15.05;;;;;;;6.76;45.12;98837.31;4486629;32;20097;-83
2022/03/05 00:56:55;;;;;;;31.58;13.98;;;;;;;6.80;45.03;98836.28;4486479;32;20129;-83
2022/03/05 00:59:20;;;;;;;31.67;12.82;;;;;;;6.77;44.39;98834.66;4502407;31;20145;-82
2022/03/05 01:01:46;;;;;;;30.58;12.90;;;;;;;6.79;44.19;98831.97;4503646;31;20167;-83
2022/03/05 01:04:11;;;;;;;28.12;12.10;;;;;;;6.78;44.23;98836.38;4503510;31;20122;-84
2022/03/05 01:06:36;;;;;;;27.50;11.07;;;;;;;6.78;43.70;98836.38;4503453;31;20186;-83
2022/03/05 01:09:04;;;;;;;25.52;10.98;;;;;;;6.77;43.31;98832.03;4499558;31;20084;-82
2022/03/05 01:11:29;;;;;;;22.83;10.35;;;;;;;6.73;43.23;98833.06;4495190;31;20109;-85
2022/03/05 01:13:55;;;;;;;23.90;10.20;;;;;;;6.68;43.28;98830.62;4487570;32;20096;-84
2022/03/05 01:16:20;;;;;;;25.23;10.40;;;;;;;6.64;43.32;98834.25;4487658;32;20085;-84
2022/03/05 01:18:46;;;;;;;21.52;9.30;;;;;;;6.64;42.97;98834.25;4472350;32;20150;-85
2022/03/05 01:21:12;;;;;;;22.33;9.90;;;;;;;6.63;42.52;98829.94;4487625;32;20107;-84
2022/03/05 01:23:38;;;;;;;20.20;8.70;;;;;;;6.60;42.28;98834.44;4473422;32;20150;-85
2022/03/05 01:26:03;;;;;;;22.45;8.55;;;;;;;6.58;41.88;98833.66;4487847;32;20135;-85
2022/03/05 01:28:29;;;;;;;19.62;8.38;;;;;;;6.61;41.67;98838.78;4487398;32;20092;-85
2022/03/05 01:30:54;;;;;;;19.73;8.35;;;;;;;6.67;41.30;98835.91;4487300;32;20096;-84
2022/03/05 01:33:20;;;;;;;17.62;7.40;;;;;;;6.55;41.32;98828.50;4487122;32;20425;-85
2022/03/05 01:35:48;;;;;;;19.12;7.50;;;;;;;6.67;40.76;98830.69;4473529;32;20474;-83
2022/03/05 01:38:14;;;;;;;16.77;6.93;;;;;;;6.66;40.47;98829.84;4487660;32;20081;-83
2022/03/05 01:40:40;;;;;;;16.75;7.00;;;;;;;6.68;40.04;98830.62;4487233;32;20103;-84
2022/03/05 01:43:05;;;;;;;18.40;7.07;;;;;;;6.66;40.38;98827.22;4487434;32;20375;-84
2022/03/05 01:45:31;;;;;;;17.52;6.55;;;;;;;6.64;40.12;98830.78;4487254;32;20100;-83
2022/03/05 01:47:57;;;;;;;16.15;6.80;;;;;;;6.65;39.59;98832.50;4487532;32;20122;-83
2022/03/05 01:50:23;;;;;;;16.30;7.07;;;;;;;6.63;38.99;98832.56;4487623;32;20123;-84
2022/03/05 01:52:49;;;;;;;18.42;7.87;;;;;;;6.57;39.24;98834.56;4487495;32;20396;-84
2022/03/05 01:55:14;;;;;;;18.83;7.47;;;;;;;6.40;38.19;98840.44;4487291;32;20088;-83
2022/03/05 01:57:39;;;;;;;19.33;7.80;;;;;;;6.46;38.23;98846.28;4476664;31;20400;-85
2022/03/05 02:00:08;;;;;;;17.55;7.07;;;;;;;6.14;38.89;98850.03;4503083;31;20169;-84
2022/03/05 02:02:33;;;;;;;18.00;6.93;;;;;;;6.36;38.94;98841.44;4503055;31;20127;-84
2022/03/05 02:04:59;;;;;;;19.60;7.82;;;;;;;6.45;38.90;98843.72;4502910;31;20088;-84
2022/03/05 02:07:24;;;;;;;21.33;7.68;;;;;;;6.46;38.80;98845.44;4502989;31;20076;-84
2022/03/05 02:09:51;;;;;;;16.92;6.72;;;;;;;6.47;38.91;98845.38;4502872;31;20114;-85
2022/03/05 02:12:16;;;;;;;16.80;6.78;;;;;;;6.50;38.88;98849.63;4502999;31;20197;-85
2022/03/05 02:14:41;;;;;;;19.85;7.68;;;;;;;6.49;38.89;98846.19;4502982;31;20419;-86
2022/03/05 02:17:07;;;;;;;18.42;7.07;;;;;;;6.26;38.53;98848.78;4502656;31;20084;-84
2022/03/05 02:19:32;;;;;;;18.45;6.62;;;;;;;6.38;38.32;98850.94;4487081;31;20496;-86
2022/03/05 02:21:58;;;;;;;18.92;6.80;;;;;;;6.33;38.33;98850.25;4481445;32;20100;-83
2022/03/05 02:24:32;;;;;;;21.92;7.82;;;;;;;6.26;38.16;98864.47;4488406;31;20108;-85
2022/03/05 02:26:59;;;;;;;19.15;7.00;;;;;;;5.98;38.34;98857.59;4502782;31;20096;-84
2022/03/05 02:29:25;;;;;;;20.50;8.05;;;;;;;6.07;38.43;98862.50;4502549;31;20119;-84
2022/03/05 02:31:53;;;;;;;18.90;7.65;;;;;;;5.72;39.13;98863.69;4502825;31;20096;-83
2022/03/05 02:34:18;;;;;;;19.48;8.23;;;;;;;5.99;38.89;98863.66;4502724;31;20151;-84
2022/03/05 02:36:44;;;;;;;23.40;9.90;;;;;;;5.89;39.85;98865.72;4488230;31;20159;-83
2022/03/05 02:39:09;;;;;;;25.23;10.52;;;;;;;5.58;41.30;98864.16;4502681;31;20144;-85
2022/03/05 02:41:35;;;;;;;22.35;9.77;;;;;;;5.45;41.99;98866.31;4488233;31;20104;-83
2022/03/05 02:44:00;;;;;;;22.00;8.50;;;;;;;5.28;42.16;98866.84;4501720;31;20109;-82
2022/03/05 02:46:28;;;;;;;21.65;9.43;;;;;;;5.64;41.51;98866.56;4493443;31;20184;-82
2022/03/05 02:48:53;;;;;;;24.83;9.73;;;;;;;5.55;41.74;98861.62;4488884;31;20128;-84
2022/03/05 02:51:20;;;;;;;23.17;9.65;;;;;;;5.75;41.02;98860.09;4480151;31;20349;-82
2022/03/05 02:53:46;;;;;;;21.77;9.10;;;;;;;5.58;41.43;98866.78;4486998;31;20076;-83
2022/03/05 02:56:12;;;;;;;22.48;9.57;;;;;;;5.67;41.65;98860.38;4487044;31;20149;-84
2022/03/05 02:58:37;;;;;;;22.40;8.90;;;;;;;5.77;41.65;98856.53;4487389;31;20149;-83
2022/03/05 03:01:02;;;;;;;21.90;8.13;;;;;;;5.77;41.62;98860.91;4486900;31;20119;-83
2022/03/05 03:03:28;;;;;;;24.73;9.35;;;;;;;5.77;41.35;98860.91;4495094;31;20425;-84
2022/03/05 03:05:53;;;;;;;21.67;8.38;;;;;;;5.82;40.94;98864.22;4502467;31;20084;-83
2022/03/05 03:08:19;;;;;;;19.85;8.30;;;;;;;5.83;40.84;98861.56;4488149;31;20108;-84
2022/03/05 03:10:44;;;;;;;21.45;8.95;;;;;;;5.84;40.92;98863.25;4502676;31;20091;-84
2022/03/05 03:13:10;;;;;;;22.55;8.27;;;;;;;5.95;40.91;98862.03;4502394;31;20106;-84
2022/03/05 03:15:35;;;;;;;22.62;8.63;;;;;;;5.99;40.84;98858.44;4502316;31;20121;-84
2022/03/05 03:18:01;;;;;;;25.02;8.88;;;;;;;6.02;40.88;98856.56;4502407;31;20149;-84
2022/03/05 03:20:26;;;;;;;21.85;8.80;;;;;;;6.04;40.67;98861.75;4502451;31;20145;-85
2022/03/05 03:22:53;;;;;;;21.75;8.65;;;;;;;5.96;40.57;98859.41;4502427;31;20431;-85
2022/03/05 03:25:19;;;;;;;20.35;8.13;;;;;;;6.05;40.61;98861.69;4502344;31;20467;-85
2022/03/05 03:27:45;;;;;;;18.95;8.18;;;;;;;6.13;40.69;98863.22;4502362;31;20442;-84
2022/03/05 03:30:12;;;;;;;18.05;7.87;;;;;;;6.16;40.62;98853.50;4484266;31;20087;-85
2022/03/05 03:32:39;;;;;;;19.42;8.23;;;;;;;6.21;40.68;98854.16;4491564;31;20088;-85
2022/03/05 03:35:05;;;;;;;22.13;8.52;;;;;;;6.21;40.73;98858.53;4471776;32;20080;-85
2022/03/05 03:37:31;;;;;;;20.00;7.50;;;;;;;6.22;40.33;98858.50;4486433;32;20152;-84
2022/03/05 03:39:58;;;;;;;20.00;8.00;;;;;;;6.19;40.38;98860.38;4486318;32;20100;-86
2022/03/05 03:42:25;;;;;;;19.92;7.60;;;;;;;6.21;40.43;98858.53;4485786;32;20079;-86
2022/03/05 03:44:50;;;;;;;17.25;7.12;;;;;;;6.20;40.06;98855.09;4472027;32;20391;-85
2022/03/05 03:47:18;;;;;;;18.15;7.35;;;;;;;6.19;39.92;98852.53;4485925;32;20175;-85
2022/03/05 03:49:43;;;;;;;19.25;7.70;;;;;;;6.24;40.00;98859.28;4486090;32;20092;-85
2022/03/05 03:52:09;;;;;;;17.42;7.28;;;;;;;6.18;39.96;98862.12;4476012;31;20168;-85
2022/03/05 03:54:34;;;;;;;18.70;7.05;;;;;;;6.20;39.99;98862.94;4463920;32;20108;-84
2022/03/05 03:56:59;;;;;;;17.65;6.78;;;;;;;6.14;40.12;98859.66;4471872;32;20108;-84
2022/03/05 03:59:25;;;;;;;17.15;7.37;;;;;;;5.97;39.78;98866.34;4485979;32;20084;-83
2022/03/05 04:01:50;;;;;;;18.45;7.40;;;;;;;5.81;39.44;98859.91;4486220;32;20396;-85
2022/03/05 04:04:16;;;;;;;19.37;8.05;;;;;;;5.94;39.27;98855.97;4485992;32;20470;-84
2022/03/05 04:09:25;;;;;;;18.17;7.75;;;;;;;5.79;40.11;98861.72;4486060;32;20127;-84
2022/03/05 04:11:51;;;;;;;17.67;7.22;;;;;;;5.78;40.65;98860.88;4485755;32;20385;-84
2022/03/05 04:14:17;;;;;;;16.58;6.90;;;;;;;5.87;40.54;98864.91;4485898;32;20131;-85
2022/03/05 04:16:43;;;;;;;18.98;7.35;;;;;;;5.94;40.64;98870.78;4485796;32;20092;-85
2022/03/05 04:19:08;;;;;;;18.67;6.87;;;;;;;5.97;39.77;98862.88;4485679;32;20111;-84
2022/03/05 04:21:34;;;;;;;18.20;7.12;;;;;;;5.77;39.72;98866.97;4485638;32;20092;-84
2022/03/05 04:23:59;;;;;;;18.48;7.90;;;;;;;5.92;39.55;98870.84;4459489;31;20348;-83
2022/03/05 04:26:25;;;;;;;18.85;7.37;;;;;;;5.92;39.66;98876.06;4501425;31;20084;-83
2022/03/05 04:28:50;;;;;;;18.40;6.78;;;;;;;5.77;39.66;98872.22;4501406;31;20118;-83
2022/03/05 04:31:16;;;;;;;20.40;7.78;;;;;;;5.94;39.62;98874.25;4501357;31;20215;-83
2022/03/05 04:33:41;;;;;;;19.17;7.18;;;;;;;5.93;39.55;98877.78;4486881;31;20084;-82
2022/03/05 04:36:07;;;;;;;18.98;7.35;;;;;;;5.61;39.80;98884.09;4501799;31;20091;-82
2022/03/05 04:38:32;;;;;;;17.75;7.00;;;;;;;5.82;39.58;98883.38;4501576;31;20083;-83
2022/03/05 04:40:58;;;;;;;19.60;7.78;;;;;;;5.77;39.78;98885.28;4486477;31;20108;-83
2022/03/05 04:43:23;;;;;;;17.67;7.25;;;;;;;5.85;39.51;98882.41;4485284;32;20367;-82
2022/03/05 04:45:49;;;;;;;17.77;6.80;;;;;;;5.70;39.48;98887.25;4458008;32;20097;-83
2022/03/05 04:48:14;;;;;;;17.23;7.05;;;;;;;5.82;39.29;98886.00;4471256;32;20139;-83
2022/03/05 04:50:40;;;;;;;15.65;6.47;;;;;;;5.79;39.45;98891.31;4471172;32;20149;-83
2022/03/05 04:53:05;;;;;;;17.15;6.57;;;;;;;5.57;39.81;98888.56;4485119;32;20080;-83
2022/03/05 04:55:31;;;;;;;19.80;7.95;;;;;;;5.76;39.50;98887.97;4487648;32;20132;-83
2022/03/05 04:57:56;;;;;;;16.27;6.50;;;;;;;5.86;39.82;98891.97;4487582;32;20151;-82
2022/03/05 05:00:22;;;;;;;18.98;7.00;;;;;;;5.70;39.77;98886.41;4487654;32;20097;-83
2022/03/05 05:02:48;;;;;;;17.92;6.50;;;;;;;5.90;39.60;98883.97;4473895;31;20120;-83
2022/03/05 05:05:13;;;;;;;20.58;7.28;;;;;;;5.78;39.62;98888.78;4481677;32;20123;-83
2022/03/05 05:07:39;;;;;;;17.77;6.65;;;;;;;5.83;39.70;98882.50;4473017;32;20108;-83
2022/03/05 05:10:05;;;;;;;17.62;6.32;;;;;;;5.62;39.94;98885.78;4487657;32;20092;-83
2022/03/05 05:12:31;;;;;;;17.20;7.25;;;;;;;5.77;39.66;98884.44;4473256;32;20088;-83
2022/03/05 05:14:56;;;;;;;19.80;7.05;;;;;;;5.82;39.63;98886.00;4473098;32;20127;-84
2022/03/05 05:17:21;;;;;;;19.37;7.53;;;;;;;5.94;39.68;98887.34;4487363;32;20410;-84
2022/03/05 05:19:50;;;;;;;17.95;6.43;;;;;;;5.88;39.90;98887.53;4487446;32;20148;-84
2022/03/05 05:22:15;;;;;;;18.25;7.03;;;;;;;6.04;39.44;98885.28;4473099;32;20464;-85
2022/03/05 05:24:47;;;;;;;17.33;7.43;;;;;;;6.10;39.54;98899.03;4478925;31;20137;-85
2022/03/05 05:27:15;;;;;;;21.35;7.85;;;;;;;6.01;39.53;98895.87;4502971;31;20490;-84
2022/03/05 05:29:40;;;;;;;;;;;;;;;5.47;40.37;98900.22;4476137;31;20115;-84
2022/03/05 05:32:07;;;;;;;17.10;6.20;;;;;;;5.84;39.77;98899.88;4503133;31;20343;-85
2022/03/05 05:34:36;;;;;;;19.65;7.28;;;;;;;5.92;39.70;98889.16;4502841;31;20085;-83
2022/03/05 05:37:05;;;;;;;18.73;7.50;;;;;;;6.03;39.75;98901.91;4488711;31;20096;-83
2022/03/05 05:39:30;;;;;;;18.92;7.35;;;;;;;6.06;39.38;98904.37;4503073;31;20091;-83
2022/03/05 05:41:56;;;;;;;21.42;7.35;;;;;;;6.08;39.45;98902.56;4503097;31;20500;-83
2022/03/05 05:44:21;;;;;;;19.20;7.20;;;;;;;5.97;39.62;98904.69;4503073;31;20119;-84
2022/03/05 05:46:47;;;;;;;18.62;7.00;;;;;;;6.03;39.27;98907.12;4503029;31;20139;-84
2022/03/05 05:49:12;;;;;;;21.02;7.47;;;;;;;5.90;39.71;98917.09;4502849;31;20107;-86
2022/03/05 05:51:38;;;;;;;18.33;7.45;;;;;;;5.94;40.04;98920.47;4502936;31;20084;-84
2022/03/05 05:54:04;;;;;;;18.75;7.53;;;;;;;5.74;40.52;98922.00;4502908;31;20390;-85
2022/03/05 05:56:29;;;;;;;17.98;6.78;;;;;;;5.88;40.19;98918.91;4503011;31;20092;-85
2022/03/05 05:58:55;;;;;;;18.17;7.32;;;;;;;5.80;40.42;98920.94;4503062;31;20131;-85
2022/03/05 06:01:21;;;;;;;18.05;7.65;;;;;;;5.95;40.24;98916.94;4488556;31;20383;-85
2022/03/05 06:03:48;;;;;;;18.35;7.68;;;;;;;5.88;40.57;98924.16;4502783;31;20566;-85
2022/03/05 06:06:14;;;;;;;18.75;7.22;;;;;;;5.81;40.89;98927.88;4503015;31;20088;-85
2022/03/05 06:08:40;;;;;;;21.23;8.10;;;;;;;5.86;40.84;98932.03;4503027;31;20147;-84
2022/03/05 06:11:06;;;;;;;19.35;7.72;;;;;;;5.62;41.36;98943.28;4503073;31;20072;-86
2022/03/05 06:13:31;;;;;;;21.33;7.87;;;;;;;5.76;41.09;98937.62;4498943;31;20127;-87
2022/03/05 06:15:57;;;;;;;18.98;7.25;;;;;;;5.20;41.97;98943.75;4490631;31;20097;-85
2022/03/05 06:18:22;;;;;;;21.23;8.52;;;;;;;5.37;42.27;98951.03;4487049;32;20140;-86
2022/03/05 06:20:47;;;;;;;20.77;8.45;;;;;;;5.52;41.75;98950.56;4472395;32;20459;-85
2022/03/05 06:23:13;;;;;;;21.58;8.00;;;;;;;5.16;42.19;98950.81;4486541;31;20152;-83
2022/03/05 06:25:39;;;;;;;18.45;7.43;;;;;;;5.13;42.59;98954.34;4500308;31;20092;-84
2022/03/05 06:28:04;;;;;;;18.30;7.72;;;;;;;5.47;41.77;98960.31;4487422;31;20411;-84
2022/03/05 06:30:30;;;;;;;19.42;7.85;;;;;;;5.29;42.33;98952.16;4501798;31;20435;-84
2022/03/05 06:32:56;;;;;;;19.37;7.35;;;;;;;5.09;42.62;98957.94;4488387;31;20499;-84
2022/03/05 06:35:21;;;;;;;20.85;8.00;;;;;;;5.04;42.58;98965.09;4502376;31;20084;-82
2022/03/05 06:37:46;;;;;;;20.10;8.05;;;;;;;5.29;42.14;98962.59;4502840;31;20088;-81
2022/03/05 06:40:12;;;;;;;20.83;8.27;;;;;;;5.26;42.23;98959.22;4502756;31;20088;-81
2022/03/05 06:42:39;;;;;;;20.48;8.18;;;;;;;5.24;42.53;98963.63;4488346;31;20202;-81
2022/03/05 06:45:05;;;;;;;19.33;7.97;;;;;;;5.29;42.46;98962.59;4488191;31;20406;-85
2022/03/05 06:47:31;;;;;;;21.48;8.45;;;;;;;5.55;41.88;98958.31;4488210;31;20114;-83
2022/03/05 06:49:57;;;;;;;18.70;7.40;;;;;;;5.68;41.36;98966.63;4502381;31;20381;-82
2022/03/05 06:52:22;;;;;;;20.02;7.30;;;;;;;5.44;42.03;98969.09;4501997;31;20499;-84
2022/03/05 06:54:48;;;;;;;20.67;7.68;;;;;;;5.30;42.13;98969.50;4501979;31;20100;-82
2022/03/05 06:57:13;;;;;;;21.10;8.52;;;;;;;5.18;42.74;98975.13;4501595;31;20118;-83
2022/03/05 06:59:39;;;;;;;19.65;7.87;;;;;;;5.27;42.57;98968.75;4500375;31;20135;-85
2022/03/05 07:02:04;;;;;;;18.27;7.72;;;;;;;5.40;42.30;98964.87;4488922;31;20112;-80
2022/03/05 07:04:30;;;;;;;17.23;6.95;;;;;;;5.63;41.96;98966.75;4488246;31;20138;-81
2022/03/05 07:06:56;;;;;;;20.98;7.93;;;;;;;5.31;43.08;98970.34;4476969;32;20100;-80
2022/03/05 07:09:21;;;;;;;18.87;6.85;;;;;;;5.59;42.76;98964.31;4487296;31;20080;-81
2022/03/05 07:11:46;;;;;;;19.10;7.43;;;;;;;5.70;42.75;98967.44;4489961;31;20154;-82
2022/03/05 07:14:12;;;;;;;20.80;7.32;;;;;;;5.75;42.66;98970.75;4488784;31;20096;-80
2022/03/05 07:16:37;;;;;;;18.85;7.07;;;;;;;5.83;43.11;98967.88;4485715;31;20100;-79
2022/03/05 07:19:02;;;;;;;22.58;7.10;;;;;;;5.62;43.86;98977.25;4489539;31;20129;-80
2022/03/05 07:21:28;;;;;;;19.77;7.25;;;;;;;5.73;43.65;98977.78;4492784;31;20466;-80
2022/03/05 07:23:53;;;;;;;17.58;7.57;;;;;;;5.95;43.52;98975.38;4489101;31;20097;-81
2022/03/05 07:26:19;;;;;;;18.85;6.97;;;;;;;6.10;43.47;98980.09;4488657;31;20105;-79
2022/03/05 07:28:45;;;;;;;17.08;6.85;;;;;;;6.24;43.10;98981.41;4487061;31;20084;-82
2022/03/05 07:31:11;;;;;;;17.85;7.00;;;;;;;6.28;42.95;98983.84;4474059;31;20117;-80
2022/03/05 07:33:36;;;;;;;17.77;7.32;;;;;;;6.44;42.65;98978.94;4481934;31;112550;-83
2022/03/05 07:36:04;;;;;;;18.98;7.12;;;;;;;6.62;42.17;98980.03;4473085;31;20080;-84
2022/03/05 07:38:33;;;;;;;16.50;6.80;;;;;;;6.73;41.79;98982.28;4493868;31;20076;-81
2022/03/05 07:40:58;;;;;;;19.12;7.00;;;;;;;6.71;41.81;98983.28;4480441;31;20458;-81
2022/03/05 07:43:24;;;;;;;17.45;6.55;;;;;;;6.75;41.97;98975.25;4476565;32;20100;-80
2022/03/05 07:45:50;;;;;;;18.23;7.55;;;;;;;6.95;41.66;98974.50;4499131;31;20130;-80
2022/03/05 07:48:19;;;;;;;18.80;7.22;;;;;;;7.10;41.37;98980.94;4474958;31;20080;-79
2022/03/05 07:50:46;;;;;;;18.65;7.03;;;;;;;6.98;42.08;98982.25;4482585;31;20092;-79
2022/03/05 07:53:11;;;;;;;19.48;8.27;;;;;;;7.17;42.12;98987.69;4478542;32;20132;-80
2022/03/05 07:55:36;;;;;;;20.37;8.05;;;;;;;7.13;42.45;98988.72;4485917;32;20088;-77
2022/03/05 07:58:02;;;;;;;20.85;7.65;;;;;;;7.20;42.51;98990.16;4498753;31;20403;-81
2022/03/05 08:00:27;;;;;;;17.73;7.37;;;;;;;7.31;42.22;98981.06;4489734;31;20104;-81
2022/03/05 08:02:53;;;;;;;18.42;7.55;;;;;;;7.33;42.15;98992.34;4494108;31;20092;-81
2022/03/05 08:05:19;;;;;;;19.45;7.97;;;;;;;7.44;42.11;98990.16;4495456;31;20103;-80
2022/03/05 08:07:53;;;;;;;25.15;7.78;;;;;;;7.51;41.80;98993.41;4488474;31;20088;-78
2022/03/05 08:10:18;;;;;;;17.37;7.43;;;;;;;7.60;41.53;98993.88;4471283;32;20104;-80
2022/03/05 08:12:43;;;;;;;17.67;6.95;;;;;;;7.54;41.50;98993.28;4485505;32;20128;-80
2022/03/05 08:15:10;;;;;;;17.05;6.57;;;;;;;7.32;41.80;99003.72;4494022;31;20107;-80
2022/03/05 08:17:35;;;;;;;19.58;8.05;;;;;;;7.53;41.63;98997.66;4462046;32;20504;-79
2022/03/05 08:20:01;;;;;;;17.40;7.00;;;;;;;7.39;41.90;98994.72;4486378;31;20122;-80
2022/03/05 08:22:26;;;;;;;18.92;7.57;;;;;;;7.58;41.74;98993.09;4482032;32;20112;-79
2022/03/05 08:24:52;;;;;;;19.58;7.55;;;;;;;7.81;41.26;98993.97;4485308;32;20329;-80
2022/03/05 08:27:17;;;;;;;18.05;7.80;;;;;;;7.94;40.71;98996.94;4495610;31;20345;-80
2022/03/05 08:29:43;;;;;;;19.87;8.18;;;;;;;7.63;41.06;99000.75;4476452;32;20120;-79
2022/03/05 08:32:09;;;;;;;22.75;8.32;;;;;;;7.76;40.78;98998.53;4500406;31;20100;-82
2022/03/05 08:34:34;;;;;;;20.75;8.90;;;;;;;7.62;41.11;98996.47;4492088;31;20081;-82
2022/03/05 08:36:59;;;;;;;16.70;7.28;;;;;;;7.88;40.78;98998.91;4481062;32;20084;-81
2022/03/05 08:39:25;;;;;;;22.08;8.68;;;;;;;7.92;40.88;99001.38;4497844;31;20160;-80
2022/03/05 08:41:51;;;;;;;19.30;7.85;;;;;;;8.05;40.55;98998.22;4503721;31;20095;-84
2022/03/05 08:44:17;;;;;;;18.55;8.25;;;;;;;8.04;40.61;99001.75;4489614;31;20120;-82
2022/03/05 08:46:42;;;;;;;19.80;8.63;;;;;;;8.12;40.66;99001.44;4502955;31;20100;-82
2022/03/05 08:49:08;;;;;;;20.83;8.27;;;;;;;8.20;40.42;99003.75;4503291;31;20457;-82
2022/03/05 08:51:33;;;;;;;20.10;8.73;;;;;;;7.95;40.06;99009.16;4503070;31;20445;-82
2022/03/05 08:53:59;;;;;;;21.20;8.45;;;;;;;8.11;39.75;99006.75;4489503;31;20080;-82
2022/03/05 08:56:24;;;;;;;20.83;8.35;;;;;;;8.26;39.71;99006.12;4503653;31;20081;-82
2022/03/05 08:58:49;;;;;;;17.65;7.62;;;;;;;8.42;39.33;98998.47;4503662;31;20107;-82
2022/03/05 09:01:15;;;;;;;18.40;8.27;;;;;;;8.54;38.99;98995.34;4503681;31;20412;-82
2022/03/05 09:03:41;;;;;;;18.92;7.85;;;;;;;8.28;38.68;99005.13;4489635;31;20080;-82
2022/03/05 09:06:06;;;;;;;20.88;8.35;;;;;;;8.38;38.22;98997.75;4489398;31;20134;-82
2022/03/05 09:08:32;;;;;;;20.15;7.75;;;;;;;8.66;38.34;98999.22;4489325;31;20134;-82
2022/03/05 09:10:58;;;;;;;20.70;8.40;;;;;;;8.80;37.90;98998.59;4503649;31;20151;-82
2022/03/05 09:13:23;;;;;;;21.85;8.77;;;;;;;8.93;37.40;98993.66;4503345;31;20100;-82
2022/03/05 09:15:48;;;;;;;17.95;8.02;;;;;;;9.09;36.73;98996.47;4503461;31;20364;-82
2022/03/05 09:18:14;;;;;;;18.20;7.07;;;;;;;8.96;36.04;98997.03;4489166;31;20092;-81
2022/03/05 09:20:43;;;;;;;18.08;7.28;;;;;;;9.20;35.57;98991.56;4503251;31;20106;-81
2022/03/05 09:23:08;;;;;;;18.23;7.87;;;;;;;9.44;33.58;98992.19;4473729;32;20130;-82
2022/03/05 09:25:34;;;;;;;18.87;7.25;;;;;;;9.36;34.09;98987.28;4473434;32;20072;-81
2022/03/05 09:27:59;;;;;;;21.75;7.57;;;;;;;9.37;32.21;98988.16;4487651;32;20115;-82
2022/03/05 09:30:25;;;;;;;16.25;6.95;;;;;;;9.34;32.28;98983.03;4487624;32;20084;-81
2022/03/05 09:32:50;;;;;;;19.27;7.28;;;;;;;9.62;32.49;98988.72;4487610;32;20076;-82
2022/03/05 09:35:16;;;;;;;17.92;7.37;;;;;;;9.62;32.24;98982.63;4487396;32;20072;-82
2022/03/05 09:37:41;;;;;;;17.17;7.50;;;;;;;9.26;31.76;98988.66;4487461;32;20104;-81
2022/03/05 09:40:08;;;;;;;18.10;7.87;;;;;;;9.32;32.10;98998.03;4472716;32;20495;-82
2022/03/05 09:42:33;;;;;;;16.25;6.80;;;;;;;9.44;32.10;98998.34;4473256;32;20084;-81
2022/03/05 09:44:59;;;;;;;17.15;6.82;;;;;;;9.30;31.84;98992.00;4473279;32;20126;-81
2022/03/05 09:47:26;;;;;;;17.55;6.97;;;;;;;9.17;32.24;98986.44;4487367;32;20105;-82
2022/03/05 09:49:51;;;;;;;16.97;7.00;;;;;;;9.23;32.22;98981.78;4487848;32;20096;-82
2022/03/05 09:52:17;;;;;;;19.92;7.72;;;;;;;9.31;32.45;98978.78;4473390;32;20488;-82
2022/03/05 09:54:42;;;;;;;17.12;7.28;;;;;;;9.23;32.55;98981.78;4473003;32;20450;-81
2022/03/05 09:57:09;;;;;;;18.35;7.28;;;;;;;9.31;32.60;98978.78;4473144;32;20093;-82
2022/03/05 09:59:35;;;;;;;20.25;7.78;;;;;;;9.46;32.45;98979.84;4473208;32;20100;-81
2022/03/05 10:02:02;;;;;;;18.15;8.02;;;;;;;9.64;32.16;98978.97;4473181;32;20123;-81
2022/03/05 10:04:28;;;;;;;18.98;7.93;;;;;;;9.80;32.06;98979.09;4460241;32;21242;-81
2022/03/05 10:07:08;;;;;;;15.85;6.90;;;;;;;9.83;32.20;98976.31;4487504;32;20392;-82
2022/03/05 10:09:34;;;;;;;19.45;7.28;;;;;;;9.67;31.91;98977.13;4473032;32;20131;-81
2022/03/05 10:12:00;;;;;;;17.33;7.25;;;;;;;9.86;31.99;98974.47;4473107;32;20372;-83
2022/03/05 10:14:25;;;;;;;17.12;7.30;;;;;;;9.87;31.54;98970.88;4476244;31;20076;-81
2022/03/05 10:16:59;;;;;;;16.45;6.80;;;;;;;9.74;31.44;98976.75;4492723;31;20134;-80
2022/03/05 10:19:24;;;;;;;15.35;6.97;;;;;;;9.65;31.74;98972.78;4480866;31;20164;-82
2022/03/05 10:22:03;;;;;;;18.37;6.70;;;;;;;9.68;31.56;98978.81;4481216;31;20238;-81
2022/03/05 10:24:35;;;;;;;16.10;6.53;;;;;;;9.29;32.12;98975.38;4491019;31;20061;-81
2022/03/05 10:27:01;;;;;;;16.10;6.47;;;;;;;9.55;32.37;98974.13;4474379;31;20155;-81
2022/03/05 10:29:29;;;;;;;16.23;7.10;;;;;;;9.51;32.25;98972.59;4477443;32;20121;-82
2022/03/05 10:32:01;;;;;;;17.70;7.35;;;;;;;9.63;31.78;98969.38;4476509;31;20470;-82
2022/03/05 10:34:52;;;;;;;15.48;6.05;;;;;;;9.77;32.10;98960.84;4474118;31;20089;-79
2022/03/05 10:37:19;;;;;;;15.13;6.28;;;;;;;9.77;30.86;98973.13;4493447;31;20147;-80
2022/03/05 10:39:49;;;;;;;17.45;6.93;;;;;;;10.00;30.64;98972.84;4493319;31;20087;-81
2022/03/05 10:42:26;;;;;;;16.25;6.62;;;;;;;9.41;31.22;98977.44;4494936;31;20115;-79
2022/03/05 10:45:04;;;;;;;16.98;6.80;;;;;;;9.65;31.37;98977.19;4479406;31;20084;-78
2022/03/05 10:47:43;;;;;;;17.42;6.43;;;;;;;9.32;32.37;98971.75;4490410;31;20096;-79
2022/03/05 10:50:15;;;;;;;16.52;6.60;;;;;;;9.37;32.01;98967.13;4489984;31;20088;-79
2022/03/05 10:52:49;;;;;;;16.37;6.87;;;;;;;9.52;31.68;98976.94;4477653;31;20175;-78
2022/03/05 10:55:16;;;;;;;16.70;6.55;;;;;;;9.15;32.03;98973.34;4490287;31;20076;-79
2022/03/05 10:57:55;;;;;;;17.62;7.00;;;;;;;9.60;31.75;98971.28;4492583;31;20188;-80
2022/03/05 11:00:21;;;;;;;17.50;7.43;;;;;;;9.30;32.46;98974.44;4480785;31;20387;-79
2022/03/05 11:02:46;;;;;;;18.45;6.68;;;;;;;9.56;31.42;98970.59;4479272;31;20087;-81
2022/03/05 11:05:12;;;;;;;16.37;6.72;;;;;;;9.29;31.54;98971.87;4466219;31;20108;-80
2022/03/05 11:07:38;;;;;;;15.65;6.30;;;;;;;9.19;31.78;98972.31;4492143;31;20100;-81
2022/03/05 11:10:03;;;;;;;16.77;7.22;;;;;;;9.31;31.73;98965.66;4492071;31;20122;-84
2022/03/05 11:12:30;;;;;;;18.35;7.57;;;;;;;9.37;31.64;98962.72;4475774;31;20364;-80
2022/03/05 11:14:55;;;;;;;18.65;7.07;;;;;;;9.64;31.59;98964.97;4477176;32;20089;-83
2022/03/05 11:17:21;;;;;;;14.68;6.10;;;;;;;9.73;31.28;98950.50;4483590;31;20112;-83
2022/03/05 11:19:46;;;;;;;16.98;7.30;;;;;;;9.91;30.68;98946.12;4501590;31;20398;-82
2022/03/05 11:22:14;;;;;;;16.75;6.95;;;;;;;10.17;30.61;98952.72;4486762;31;20118;-84
2022/03/05 11:24:39;;;;;;;15.82;6.82;;;;;;;10.21;30.66;98943.75;4485487;32;20403;-85
2022/03/05 11:27:05;;;;;;;16.83;6.35;;;;;;;9.92;30.32;98956.56;4485532;32;20101;-85
2022/03/05 11:29:51;;;;;;;17.35;7.10;;;;;;;9.94;30.38;98951.25;4485407;32;20084;-82